sensor_id;sensor_type;location;lat;lon;timestamp;P1;durP1;ratioP1;P2;durP2;ratioP2
2998;SDS011;1509;51.964;7.628;2023-06-22T00:00:55;11.27;;;9.93;;
2998;SDS011;1509;51.964;7.628;2023-06-22T00:03:22;11.70;;;10.10;;
2998;SDS011;1509;51.964;7.628;2023-06-22T00:05:52;13.07;;;11.20;;
2998;SDS011;1509;51.964;7.628;2023-06-22T00:08:18;14.20;;;10.30;;
2998;SDS011;1509;51.964;7.628;2023-06-22T00:10:45;11.47;;;10.27;;
2998;SDS011;1509;51.964;7.628;2023-06-22T00:13:11;11.03;;;9.97;;
2998;SDS011;1509;51.964;7.628;2023-06-22T00:15:38;11.90;;;10.60;;
2998;SDS011;1509;51.964;7.628;2023-06-22T00:18:08;13.20;;;10.47;;
2998;SDS011;1509;51.964;7.628;2023-06-22T00:20:34;12.10;;;10.93;;
2998;SDS011;1509;51.964;7.628;2023-06-22T00:23:04;13.10;;;11.70;;
2998;SDS011;1509;51.964;7.628;2023-06-22T00:25:39;13.90;;;10.90;;
2998;SDS011;1509;51.964;7.628;2023-06-22T00:28:05;12.57;;;10.90;;
2998;SDS011;1509;51.964;7.628;2023-06-22T00:30:32;12.53;;;11.03;;
2998;SDS011;1509;51.964;7.628;2023-06-22T00:32:59;14.13;;;12.27;;
2998;SDS011;1509;51.964;7.628;2023-06-22T00:35:25;12.80;;;11.50;;
2998;SDS011;1509;51.964;7.628;2023-06-22T00:37:55;14.20;;;12.50;;
2998;SDS011;1509;51.964;7.628;2023-06-22T00:40:25;12.53;;;11.27;;
2998;SDS011;1509;51.964;7.628;2023-06-22T00:42:54;13.77;;;11.90;;
2998;SDS011;1509;51.964;7.628;2023-06-22T00:45:23;13.47;;;11.33;;
2998;SDS011;1509;51.964;7.628;2023-06-22T00:47:53;14.03;;;12.50;;
2998;SDS011;1509;51.964;7.628;2023-06-22T00:50:22;14.13;;;11.70;;
2998;SDS011;1509;51.964;7.628;2023-06-22T00:52:50;13.70;;;11.73;;
2998;SDS011;1509;51.964;7.628;2023-06-22T00:55:18;13.93;;;11.30;;
2998;SDS011;1509;51.964;7.628;2023-06-22T00:57:46;17.43;;;12.80;;
2998;SDS011;1509;51.964;7.628;2023-06-22T01:00:12;17.70;;;12.33;;
2998;SDS011;1509;51.964;7.628;2023-06-22T01:02:40;16.67;;;11.97;;
2998;SDS011;1509;51.964;7.628;2023-06-22T01:05:06;14.47;;;12.43;;
2998;SDS011;1509;51.964;7.628;2023-06-22T01:07:35;17.07;;;13.07;;
2998;SDS011;1509;51.964;7.628;2023-06-22T01:13:14;14.47;;;12.50;;
2998;SDS011;1509;51.964;7.628;2023-06-22T01:16:00;15.93;;;12.00;;
2998;SDS011;1509;51.964;7.628;2023-06-22T01:18:44;15.67;;;12.07;;
2998;SDS011;1509;51.964;7.628;2023-06-22T01:21:14;14.33;;;12.83;;
2998;SDS011;1509;51.964;7.628;2023-06-22T01:29:14;17.20;;;12.90;;
2998;SDS011;1509;51.964;7.628;2023-06-22T01:31:41;15.93;;;12.97;;
2998;SDS011;1509;51.964;7.628;2023-06-22T01:34:08;15.47;;;13.80;;
2998;SDS011;1509;51.964;7.628;2023-06-22T01:36:35;16.50;;;11.87;;
2998;SDS011;1509;51.964;7.628;2023-06-22T01:39:02;15.00;;;13.10;;
2998;SDS011;1509;51.964;7.628;2023-06-22T01:41:34;16.07;;;12.00;;
2998;SDS011;1509;51.964;7.628;2023-06-22T01:44:02;14.60;;;11.80;;
2998;SDS011;1509;51.964;7.628;2023-06-22T01:46:32;16.73;;;13.23;;
2998;SDS011;1509;51.964;7.628;2023-06-22T01:48:59;15.10;;;12.40;;
2998;SDS011;1509;51.964;7.628;2023-06-22T01:51:26;16.47;;;13.17;;
2998;SDS011;1509;51.964;7.628;2023-06-22T01:53:51;16.83;;;13.17;;
2998;SDS011;1509;51.964;7.628;2023-06-22T01:56:17;14.30;;;12.90;;
2998;SDS011;1509;51.964;7.628;2023-06-22T01:58:48;14.73;;;12.87;;
2998;SDS011;1509;51.964;7.628;2023-06-22T02:01:22;14.73;;;12.87;;
2998;SDS011;1509;51.964;7.628;2023-06-22T02:03:57;14.60;;;13.20;;
2998;SDS011;1509;51.964;7.628;2023-06-22T02:06:45;15.80;;;13.57;;
2998;SDS011;1509;51.964;7.628;2023-06-22T02:09:14;15.60;;;12.67;;
2998;SDS011;1509;51.964;7.628;2023-06-22T02:11:42;15.87;;;13.10;;
2998;SDS011;1509;51.964;7.628;2023-06-22T02:14:09;15.10;;;13.47;;
2998;SDS011;1509;51.964;7.628;2023-06-22T02:16:36;16.60;;;12.67;;
2998;SDS011;1509;51.964;7.628;2023-06-22T02:19:03;16.53;;;13.53;;
2998;SDS011;1509;51.964;7.628;2023-06-22T02:21:29;16.17;;;13.50;;
2998;SDS011;1509;51.964;7.628;2023-06-22T02:23:56;15.80;;;13.93;;
2998;SDS011;1509;51.964;7.628;2023-06-22T02:26:21;14.70;;;12.97;;
2998;SDS011;1509;51.964;7.628;2023-06-22T02:28:48;18.10;;;13.50;;
2998;SDS011;1509;51.964;7.628;2023-06-22T02:31:14;15.63;;;12.87;;
2998;SDS011;1509;51.964;7.628;2023-06-22T02:33:39;15.57;;;13.80;;
2998;SDS011;1509;51.964;7.628;2023-06-22T02:36:05;18.93;;;14.67;;
2998;SDS011;1509;51.964;7.628;2023-06-22T02:38:34;18.03;;;15.53;;
2998;SDS011;1509;51.964;7.628;2023-06-22T02:41:01;15.60;;;13.10;;
2998;SDS011;1509;51.964;7.628;2023-06-22T02:43:27;16.03;;;13.13;;
2998;SDS011;1509;51.964;7.628;2023-06-22T02:45:53;19.33;;;15.00;;
2998;SDS011;1509;51.964;7.628;2023-06-22T02:48:19;16.70;;;14.50;;
2998;SDS011;1509;51.964;7.628;2023-06-22T02:50:44;16.87;;;14.03;;
2998;SDS011;1509;51.964;7.628;2023-06-22T02:53:10;16.10;;;14.30;;
2998;SDS011;1509;51.964;7.628;2023-06-22T02:55:36;16.87;;;14.80;;
2998;SDS011;1509;51.964;7.628;2023-06-22T02:58:01;18.90;;;14.40;;
2998;SDS011;1509;51.964;7.628;2023-06-22T03:00:30;16.77;;;14.07;;
2998;SDS011;1509;51.964;7.628;2023-06-22T03:02:56;16.87;;;14.63;;
2998;SDS011;1509;51.964;7.628;2023-06-22T03:05:22;16.57;;;14.13;;
2998;SDS011;1509;51.964;7.628;2023-06-22T03:07:48;19.60;;;15.37;;
2998;SDS011;1509;51.964;7.628;2023-06-22T03:10:14;17.90;;;15.10;;
2998;SDS011;1509;51.964;7.628;2023-06-22T03:12:41;17.47;;;13.27;;
2998;SDS011;1509;51.964;7.628;2023-06-22T03:15:11;16.70;;;14.43;;
2998;SDS011;1509;51.964;7.628;2023-06-22T03:17:38;18.80;;;14.73;;
2998;SDS011;1509;51.964;7.628;2023-06-22T03:20:05;18.80;;;14.60;;
2998;SDS011;1509;51.964;7.628;2023-06-22T03:22:35;16.87;;;13.20;;
2998;SDS011;1509;51.964;7.628;2023-06-22T03:25:02;18.43;;;14.33;;
2998;SDS011;1509;51.964;7.628;2023-06-22T03:27:27;16.40;;;13.63;;
2998;SDS011;1509;51.964;7.628;2023-06-22T03:29:53;17.40;;;14.10;;
2998;SDS011;1509;51.964;7.628;2023-06-22T03:32:18;16.50;;;13.60;;
2998;SDS011;1509;51.964;7.628;2023-06-22T03:34:44;16.67;;;14.00;;
2998;SDS011;1509;51.964;7.628;2023-06-22T03:37:12;15.53;;;13.93;;
2998;SDS011;1509;51.964;7.628;2023-06-22T03:39:41;19.20;;;14.00;;
2998;SDS011;1509;51.964;7.628;2023-06-22T03:42:06;17.70;;;14.57;;
2998;SDS011;1509;51.964;7.628;2023-06-22T03:44:33;17.40;;;14.70;;
2998;SDS011;1509;51.964;7.628;2023-06-22T03:47:01;18.70;;;15.07;;
2998;SDS011;1509;51.964;7.628;2023-06-22T03:49:27;17.27;;;15.23;;
2998;SDS011;1509;51.964;7.628;2023-06-22T03:51:53;18.23;;;15.20;;
2998;SDS011;1509;51.964;7.628;2023-06-22T03:54:18;17.47;;;14.87;;
2998;SDS011;1509;51.964;7.628;2023-06-22T03:56:44;17.37;;;14.73;;
2998;SDS011;1509;51.964;7.628;2023-06-22T03:59:10;22.57;;;15.03;;
2998;SDS011;1509;51.964;7.628;2023-06-22T04:01:35;19.10;;;14.60;;
2998;SDS011;1509;51.964;7.628;2023-06-22T04:04:01;18.77;;;15.80;;
2998;SDS011;1509;51.964;7.628;2023-06-22T04:06:27;17.57;;;14.10;;
2998;SDS011;1509;51.964;7.628;2023-06-22T04:08:52;17.03;;;13.97;;
2998;SDS011;1509;51.964;7.628;2023-06-22T04:11:18;18.00;;;15.50;;
2998;SDS011;1509;51.964;7.628;2023-06-22T04:13:44;16.57;;;13.80;;
2998;SDS011;1509;51.964;7.628;2023-06-22T04:16:13;16.60;;;14.23;;
2998;SDS011;1509;51.964;7.628;2023-06-22T04:18:39;17.77;;;14.87;;
2998;SDS011;1509;51.964;7.628;2023-06-22T04:21:05;15.23;;;13.53;;
2998;SDS011;1509;51.964;7.628;2023-06-22T04:23:35;14.97;;;13.37;;
2998;SDS011;1509;51.964;7.628;2023-06-22T04:26:00;20.20;;;13.87;;
2998;SDS011;1509;51.964;7.628;2023-06-22T04:28:26;18.37;;;15.13;;
2998;SDS011;1509;51.964;7.628;2023-06-22T04:30:51;20.27;;;15.47;;
2998;SDS011;1509;51.964;7.628;2023-06-22T04:33:17;17.40;;;14.00;;
2998;SDS011;1509;51.964;7.628;2023-06-22T04:35:45;17.80;;;14.50;;
2998;SDS011;1509;51.964;7.628;2023-06-22T04:38:14;16.90;;;14.30;;
2998;SDS011;1509;51.964;7.628;2023-06-22T04:40:40;15.20;;;13.50;;
2998;SDS011;1509;51.964;7.628;2023-06-22T04:43:05;16.10;;;14.40;;
2998;SDS011;1509;51.964;7.628;2023-06-22T04:45:34;13.63;;;12.10;;
2998;SDS011;1509;51.964;7.628;2023-06-22T04:48:02;16.70;;;14.00;;
2998;SDS011;1509;51.964;7.628;2023-06-22T04:50:29;18.80;;;14.50;;
2998;SDS011;1509;51.964;7.628;2023-06-22T04:52:54;17.63;;;13.97;;
2998;SDS011;1509;51.964;7.628;2023-06-22T04:55:20;16.97;;;14.33;;
2998;SDS011;1509;51.964;7.628;2023-06-22T04:57:46;24.37;;;14.00;;
2998;SDS011;1509;51.964;7.628;2023-06-22T05:00:16;26.60;;;14.67;;
2998;SDS011;1509;51.964;7.628;2023-06-22T05:02:43;16.23;;;13.10;;
2998;SDS011;1509;51.964;7.628;2023-06-22T05:05:10;14.90;;;13.03;;
2998;SDS011;1509;51.964;7.628;2023-06-22T05:07:42;15.37;;;13.10;;
2998;SDS011;1509;51.964;7.628;2023-06-22T05:10:09;14.17;;;11.87;;
2998;SDS011;1509;51.964;7.628;2023-06-22T05:12:36;15.70;;;13.43;;
2998;SDS011;1509;51.964;7.628;2023-06-22T05:15:02;14.73;;;13.23;;
2998;SDS011;1509;51.964;7.628;2023-06-22T05:17:28;16.00;;;12.27;;
2998;SDS011;1509;51.964;7.628;2023-06-22T05:19:54;14.40;;;12.90;;
2998;SDS011;1509;51.964;7.628;2023-06-22T05:22:20;13.47;;;11.23;;
2998;SDS011;1509;51.964;7.628;2023-06-22T05:24:46;15.90;;;11.93;;
2998;SDS011;1509;51.964;7.628;2023-06-22T05:27:12;15.00;;;12.37;;
2998;SDS011;1509;51.964;7.628;2023-06-22T05:29:38;18.03;;;11.97;;
2998;SDS011;1509;51.964;7.628;2023-06-22T05:32:04;13.40;;;12.00;;
2998;SDS011;1509;51.964;7.628;2023-06-22T05:34:31;12.97;;;11.70;;
2998;SDS011;1509;51.964;7.628;2023-06-22T05:36:57;15.73;;;11.90;;
2998;SDS011;1509;51.964;7.628;2023-06-22T05:39:24;16.97;;;11.90;;
2998;SDS011;1509;51.964;7.628;2023-06-22T05:41:50;14.83;;;11.57;;
2998;SDS011;1509;51.964;7.628;2023-06-22T05:44:16;16.47;;;11.40;;
2998;SDS011;1509;51.964;7.628;2023-06-22T05:46:42;13.63;;;12.03;;
2998;SDS011;1509;51.964;7.628;2023-06-22T05:49:09;15.07;;;11.43;;
2998;SDS011;1509;51.964;7.628;2023-06-22T05:51:36;14.43;;;11.47;;
2998;SDS011;1509;51.964;7.628;2023-06-22T05:54:02;13.23;;;10.90;;
2998;SDS011;1509;51.964;7.628;2023-06-22T05:56:27;17.27;;;10.90;;
2998;SDS011;1509;51.964;7.628;2023-06-22T05:58:53;13.83;;;10.20;;
2998;SDS011;1509;51.964;7.628;2023-06-22T06:01:19;10.80;;;9.10;;
2998;SDS011;1509;51.964;7.628;2023-06-22T06:03:45;15.47;;;11.03;;
2998;SDS011;1509;51.964;7.628;2023-06-22T06:06:11;13.00;;;10.13;;
2998;SDS011;1509;51.964;7.628;2023-06-22T06:08:37;13.60;;;10.47;;
2998;SDS011;1509;51.964;7.628;2023-06-22T06:11:03;17.00;;;11.20;;
2998;SDS011;1509;51.964;7.628;2023-06-22T06:13:29;11.87;;;10.23;;
2998;SDS011;1509;51.964;7.628;2023-06-22T06:15:55;11.80;;;10.00;;
2998;SDS011;1509;51.964;7.628;2023-06-22T06:18:22;12.87;;;10.87;;
2998;SDS011;1509;51.964;7.628;2023-06-22T06:20:48;12.80;;;11.03;;
2998;SDS011;1509;51.964;7.628;2023-06-22T06:23:14;11.73;;;8.90;;
2998;SDS011;1509;51.964;7.628;2023-06-22T06:25:39;12.07;;;10.30;;
2998;SDS011;1509;51.964;7.628;2023-06-22T06:28:05;11.33;;;9.67;;
2998;SDS011;1509;51.964;7.628;2023-06-22T06:30:31;17.67;;;11.50;;
2998;SDS011;1509;51.964;7.628;2023-06-22T06:32:57;11.73;;;10.53;;
2998;SDS011;1509;51.964;7.628;2023-06-22T06:35:23;13.87;;;9.90;;
2998;SDS011;1509;51.964;7.628;2023-06-22T06:37:49;15.90;;;10.97;;
2998;SDS011;1509;51.964;7.628;2023-06-22T06:40:15;12.80;;;10.53;;
2998;SDS011;1509;51.964;7.628;2023-06-22T06:42:43;13.37;;;11.70;;
2998;SDS011;1509;51.964;7.628;2023-06-22T06:45:15;12.37;;;11.00;;
2998;SDS011;1509;51.964;7.628;2023-06-22T06:47:47;12.23;;;10.30;;
2998;SDS011;1509;51.964;7.628;2023-06-22T06:50:14;11.67;;;9.90;;
2998;SDS011;1509;51.964;7.628;2023-06-22T06:52:40;14.50;;;10.10;;
2998;SDS011;1509;51.964;7.628;2023-06-22T06:55:07;15.73;;;10.00;;
2998;SDS011;1509;51.964;7.628;2023-06-22T06:57:37;13.63;;;11.50;;
2998;SDS011;1509;51.964;7.628;2023-06-22T07:00:09;13.80;;;10.63;;
2998;SDS011;1509;51.964;7.628;2023-06-22T07:02:39;14.73;;;11.17;;
2998;SDS011;1509;51.964;7.628;2023-06-22T07:05:06;15.80;;;11.57;;
2998;SDS011;1509;51.964;7.628;2023-06-22T07:07:33;13.53;;;11.60;;
2998;SDS011;1509;51.964;7.628;2023-06-22T07:09:58;12.37;;;11.03;;
2998;SDS011;1509;51.964;7.628;2023-06-22T07:12:24;11.67;;;10.17;;
2998;SDS011;1509;51.964;7.628;2023-06-22T07:14:51;13.20;;;10.53;;
2998;SDS011;1509;51.964;7.628;2023-06-22T07:17:18;16.77;;;11.90;;
2998;SDS011;1509;51.964;7.628;2023-06-22T07:19:43;13.83;;;11.60;;
2998;SDS011;1509;51.964;7.628;2023-06-22T07:22:09;16.63;;;9.83;;
2998;SDS011;1509;51.964;7.628;2023-06-22T07:24:35;22.10;;;11.40;;
2998;SDS011;1509;51.964;7.628;2023-06-22T07:27:00;13.10;;;10.60;;
2998;SDS011;1509;51.964;7.628;2023-06-22T07:29:27;16.27;;;12.57;;
2998;SDS011;1509;51.964;7.628;2023-06-22T07:31:53;13.23;;;11.83;;
2998;SDS011;1509;51.964;7.628;2023-06-22T07:34:21;13.63;;;10.83;;
2998;SDS011;1509;51.964;7.628;2023-06-22T07:36:46;12.13;;;10.30;;
2998;SDS011;1509;51.964;7.628;2023-06-22T07:39:12;15.10;;;12.67;;
2998;SDS011;1509;51.964;7.628;2023-06-22T07:41:38;15.20;;;12.17;;
2998;SDS011;1509;51.964;7.628;2023-06-22T07:44:06;14.30;;;11.70;;
2998;SDS011;1509;51.964;7.628;2023-06-22T07:46:32;16.50;;;11.77;;
2998;SDS011;1509;51.964;7.628;2023-06-22T07:48:58;12.93;;;11.20;;
2998;SDS011;1509;51.964;7.628;2023-06-22T07:51:24;13.43;;;10.93;;
2998;SDS011;1509;51.964;7.628;2023-06-22T07:53:50;15.50;;;11.33;;
2998;SDS011;1509;51.964;7.628;2023-06-22T07:56:16;18.47;;;12.37;;
2998;SDS011;1509;51.964;7.628;2023-06-22T07:58:45;15.33;;;13.40;;
2998;SDS011;1509;51.964;7.628;2023-06-22T08:01:11;14.47;;;11.90;;
2998;SDS011;1509;51.964;7.628;2023-06-22T08:03:37;12.97;;;11.67;;
2998;SDS011;1509;51.964;7.628;2023-06-22T08:06:04;14.50;;;11.87;;
2998;SDS011;1509;51.964;7.628;2023-06-22T08:08:33;13.67;;;11.73;;
2998;SDS011;1509;51.964;7.628;2023-06-22T08:10:59;13.50;;;11.97;;
2998;SDS011;1509;51.964;7.628;2023-06-22T08:13:24;14.23;;;12.57;;
2998;SDS011;1509;51.964;7.628;2023-06-22T08:15:50;14.77;;;11.80;;
2998;SDS011;1509;51.964;7.628;2023-06-22T08:18:16;13.13;;;11.70;;
2998;SDS011;1509;51.964;7.628;2023-06-22T08:20:42;13.60;;;12.17;;
2998;SDS011;1509;51.964;7.628;2023-06-22T08:23:07;16.07;;;12.33;;
2998;SDS011;1509;51.964;7.628;2023-06-22T08:25:33;14.93;;;12.40;;
2998;SDS011;1509;51.964;7.628;2023-06-22T08:28:00;14.50;;;13.00;;
2998;SDS011;1509;51.964;7.628;2023-06-22T08:30:26;15.70;;;12.97;;
2998;SDS011;1509;51.964;7.628;2023-06-22T08:32:52;14.23;;;12.73;;
2998;SDS011;1509;51.964;7.628;2023-06-22T08:35:19;13.33;;;11.93;;
2998;SDS011;1509;51.964;7.628;2023-06-22T08:37:45;14.47;;;12.20;;
2998;SDS011;1509;51.964;7.628;2023-06-22T08:40:17;13.47;;;12.07;;
2998;SDS011;1509;51.964;7.628;2023-06-22T08:42:44;18.87;;;12.80;;
2998;SDS011;1509;51.964;7.628;2023-06-22T08:45:12;14.67;;;12.20;;
2998;SDS011;1509;51.964;7.628;2023-06-22T08:47:38;22.13;;;13.40;;
2998;SDS011;1509;51.964;7.628;2023-06-22T08:50:05;20.93;;;12.63;;
2998;SDS011;1509;51.964;7.628;2023-06-22T08:52:32;17.20;;;11.70;;
2998;SDS011;1509;51.964;7.628;2023-06-22T08:54:58;17.57;;;13.27;;
2998;SDS011;1509;51.964;7.628;2023-06-22T08:57:24;13.70;;;12.03;;
2998;SDS011;1509;51.964;7.628;2023-06-22T08:59:50;14.10;;;12.40;;
2998;SDS011;1509;51.964;7.628;2023-06-22T09:02:17;13.20;;;11.87;;
2998;SDS011;1509;51.964;7.628;2023-06-22T09:04:45;17.47;;;12.60;;
2998;SDS011;1509;51.964;7.628;2023-06-22T09:07:11;14.10;;;12.13;;
2998;SDS011;1509;51.964;7.628;2023-06-22T09:09:37;16.83;;;12.63;;
2998;SDS011;1509;51.964;7.628;2023-06-22T09:12:03;17.00;;;13.20;;
2998;SDS011;1509;51.964;7.628;2023-06-22T09:14:29;13.83;;;12.23;;
2998;SDS011;1509;51.964;7.628;2023-06-22T09:16:55;16.47;;;12.63;;
2998;SDS011;1509;51.964;7.628;2023-06-22T09:19:20;12.23;;;10.70;;
2998;SDS011;1509;51.964;7.628;2023-06-22T09:21:46;14.07;;;11.37;;
2998;SDS011;1509;51.964;7.628;2023-06-22T09:24:12;12.23;;;10.93;;
2998;SDS011;1509;51.964;7.628;2023-06-22T09:26:38;15.00;;;12.93;;
2998;SDS011;1509;51.964;7.628;2023-06-22T09:29:07;14.70;;;12.30;;
2998;SDS011;1509;51.964;7.628;2023-06-22T09:31:33;13.53;;;10.90;;
2998;SDS011;1509;51.964;7.628;2023-06-22T09:33:58;13.80;;;12.13;;
2998;SDS011;1509;51.964;7.628;2023-06-22T09:36:24;11.53;;;10.30;;
2998;SDS011;1509;51.964;7.628;2023-06-22T09:38:50;12.43;;;10.80;;
2998;SDS011;1509;51.964;7.628;2023-06-22T09:41:33;14.43;;;12.63;;
2998;SDS011;1509;51.964;7.628;2023-06-22T09:43:59;12.97;;;10.47;;
2998;SDS011;1509;51.964;7.628;2023-06-22T09:46:24;15.30;;;11.00;;
2998;SDS011;1509;51.964;7.628;2023-06-22T09:48:50;13.07;;;11.50;;
2998;SDS011;1509;51.964;7.628;2023-06-22T09:51:16;13.30;;;11.67;;
2998;SDS011;1509;51.964;7.628;2023-06-22T09:53:43;12.40;;;11.10;;
2998;SDS011;1509;51.964;7.628;2023-06-22T09:56:09;16.13;;;11.70;;
2998;SDS011;1509;51.964;7.628;2023-06-22T09:58:39;14.70;;;12.53;;
2998;SDS011;1509;51.964;7.628;2023-06-22T10:01:09;14.83;;;12.87;;
2998;SDS011;1509;51.964;7.628;2023-06-22T10:03:35;17.60;;;12.67;;
2998;SDS011;1509;51.964;7.628;2023-06-22T10:06:01;15.30;;;12.67;;
2998;SDS011;1509;51.964;7.628;2023-06-22T10:08:27;13.57;;;11.77;;
2998;SDS011;1509;51.964;7.628;2023-06-22T10:10:53;17.13;;;12.67;;
2998;SDS011;1509;51.964;7.628;2023-06-22T10:13:19;13.50;;;12.10;;
2998;SDS011;1509;51.964;7.628;2023-06-22T10:15:45;17.53;;;13.10;;
2998;SDS011;1509;51.964;7.628;2023-06-22T10:18:15;14.27;;;12.73;;
2998;SDS011;1509;51.964;7.628;2023-06-22T10:20:41;12.90;;;11.53;;
2998;SDS011;1509;51.964;7.628;2023-06-22T10:23:07;14.07;;;11.63;;
2998;SDS011;1509;51.964;7.628;2023-06-22T10:25:32;14.13;;;11.90;;
2998;SDS011;1509;51.964;7.628;2023-06-22T10:27:58;13.20;;;10.60;;
2998;SDS011;1509;51.964;7.628;2023-06-22T10:30:24;13.10;;;11.37;;
2998;SDS011;1509;51.964;7.628;2023-06-22T10:32:50;17.40;;;11.57;;
2998;SDS011;1509;51.964;7.628;2023-06-22T10:35:15;12.47;;;10.63;;
2998;SDS011;1509;51.964;7.628;2023-06-22T10:37:42;12.90;;;11.07;;
2998;SDS011;1509;51.964;7.628;2023-06-22T10:40:09;13.40;;;12.00;;
2998;SDS011;1509;51.964;7.628;2023-06-22T10:42:35;12.80;;;11.27;;
2998;SDS011;1509;51.964;7.628;2023-06-22T10:45:01;13.27;;;11.40;;
2998;SDS011;1509;51.964;7.628;2023-06-22T10:47:27;14.10;;;11.40;;
2998;SDS011;1509;51.964;7.628;2023-06-22T10:49:53;13.47;;;12.03;;
2998;SDS011;1509;51.964;7.628;2023-06-22T10:52:19;14.13;;;12.63;;
2998;SDS011;1509;51.964;7.628;2023-06-22T10:54:44;14.10;;;12.57;;
2998;SDS011;1509;51.964;7.628;2023-06-22T10:57:10;13.37;;;11.90;;
2998;SDS011;1509;51.964;7.628;2023-06-22T10:59:36;15.37;;;11.30;;
2998;SDS011;1509;51.964;7.628;2023-06-22T11:02:01;14.83;;;12.57;;
2998;SDS011;1509;51.964;7.628;2023-06-22T11:04:27;13.97;;;11.30;;
2998;SDS011;1509;51.964;7.628;2023-06-22T11:06:53;13.90;;;12.33;;
2998;SDS011;1509;51.964;7.628;2023-06-22T11:09:19;13.80;;;11.30;;
2998;SDS011;1509;51.964;7.628;2023-06-22T11:11:49;12.70;;;11.40;;
2998;SDS011;1509;51.964;7.628;2023-06-22T11:14:18;13.20;;;11.20;;
2998;SDS011;1509;51.964;7.628;2023-06-22T11:16:44;12.37;;;11.17;;
2998;SDS011;1509;51.964;7.628;2023-06-22T11:19:11;16.50;;;11.63;;
2998;SDS011;1509;51.964;7.628;2023-06-22T11:21:37;11.47;;;10.27;;
2998;SDS011;1509;51.964;7.628;2023-06-22T11:24:03;12.67;;;11.10;;
2998;SDS011;1509;51.964;7.628;2023-06-22T11:26:29;12.73;;;11.20;;
2998;SDS011;1509;51.964;7.628;2023-06-22T11:28:56;14.13;;;12.13;;
2998;SDS011;1509;51.964;7.628;2023-06-22T11:31:22;13.00;;;10.40;;
2998;SDS011;1509;51.964;7.628;2023-06-22T11:33:48;19.17;;;14.80;;
2998;SDS011;1509;51.964;7.628;2023-06-22T11:36:14;14.40;;;12.90;;
2998;SDS011;1509;51.964;7.628;2023-06-22T11:38:40;14.07;;;12.60;;
2998;SDS011;1509;51.964;7.628;2023-06-22T11:41:07;13.03;;;11.63;;
2998;SDS011;1509;51.964;7.628;2023-06-22T11:43:34;17.13;;;13.20;;
2998;SDS011;1509;51.964;7.628;2023-06-22T11:46:00;14.77;;;13.00;;
2998;SDS011;1509;51.964;7.628;2023-06-22T11:48:27;14.73;;;12.27;;
2998;SDS011;1509;51.964;7.628;2023-06-22T11:50:53;15.03;;;13.50;;
2998;SDS011;1509;51.964;7.628;2023-06-22T11:53:20;13.90;;;12.13;;
2998;SDS011;1509;51.964;7.628;2023-06-22T11:55:46;13.80;;;11.83;;
2998;SDS011;1509;51.964;7.628;2023-06-22T11:58:12;15.33;;;13.83;;
2998;SDS011;1509;51.964;7.628;2023-06-22T12:00:38;14.30;;;12.70;;
2998;SDS011;1509;51.964;7.628;2023-06-22T12:03:03;13.13;;;11.83;;
2998;SDS011;1509;51.964;7.628;2023-06-22T12:05:29;14.23;;;12.63;;
2998;SDS011;1509;51.964;7.628;2023-06-22T12:07:55;14.70;;;11.33;;
2998;SDS011;1509;51.964;7.628;2023-06-22T12:10:21;13.10;;;11.33;;
2998;SDS011;1509;51.964;7.628;2023-06-22T12:12:48;12.17;;;10.93;;
2998;SDS011;1509;51.964;7.628;2023-06-22T12:15:16;15.83;;;13.40;;
2998;SDS011;1509;51.964;7.628;2023-06-22T12:17:42;18.27;;;13.33;;
2998;SDS011;1509;51.964;7.628;2023-06-22T12:20:08;15.10;;;12.30;;
2998;SDS011;1509;51.964;7.628;2023-06-22T12:22:37;16.03;;;13.43;;
2998;SDS011;1509;51.964;7.628;2023-06-22T12:25:03;18.47;;;12.47;;
2998;SDS011;1509;51.964;7.628;2023-06-22T12:27:29;35.33;;;15.40;;
2998;SDS011;1509;51.964;7.628;2023-06-22T12:29:55;15.90;;;13.90;;
2998;SDS011;1509;51.964;7.628;2023-06-22T12:32:21;42.40;;;17.40;;
2998;SDS011;1509;51.964;7.628;2023-06-22T12:34:47;31.97;;;15.50;;
2998;SDS011;1509;51.964;7.628;2023-06-22T12:37:13;15.30;;;13.40;;
2998;SDS011;1509;51.964;7.628;2023-06-22T12:39:40;14.77;;;13.10;;
2998;SDS011;1509;51.964;7.628;2023-06-22T12:42:06;14.17;;;12.33;;
2998;SDS011;1509;51.964;7.628;2023-06-22T12:44:34;17.53;;;13.90;;
2998;SDS011;1509;51.964;7.628;2023-06-22T12:47:03;14.70;;;12.87;;
2998;SDS011;1509;51.964;7.628;2023-06-22T12:49:29;17.03;;;15.03;;
2998;SDS011;1509;51.964;7.628;2023-06-22T12:51:55;15.97;;;14.27;;
2998;SDS011;1509;51.964;7.628;2023-06-22T12:54:21;19.70;;;15.37;;
2998;SDS011;1509;51.964;7.628;2023-06-22T12:56:46;19.37;;;16.03;;
2998;SDS011;1509;51.964;7.628;2023-06-22T12:59:12;18.33;;;16.13;;
2998;SDS011;1509;51.964;7.628;2023-06-22T13:01:38;19.17;;;16.40;;
2998;SDS011;1509;51.964;7.628;2023-06-22T13:04:03;21.37;;;18.53;;
2998;SDS011;1509;51.964;7.628;2023-06-22T13:06:30;26.40;;;19.37;;
2998;SDS011;1509;51.964;7.628;2023-06-22T13:08:56;26.70;;;20.33;;
2998;SDS011;1509;51.964;7.628;2023-06-22T13:11:21;23.80;;;18.93;;
2998;SDS011;1509;51.964;7.628;2023-06-22T13:13:47;27.70;;;22.20;;
2998;SDS011;1509;51.964;7.628;2023-06-22T13:16:13;28.10;;;20.30;;
2998;SDS011;1509;51.964;7.628;2023-06-22T13:18:38;27.17;;;22.70;;
2998;SDS011;1509;51.964;7.628;2023-06-22T13:21:04;27.40;;;22.67;;
2998;SDS011;1509;51.964;7.628;2023-06-22T13:23:30;27.10;;;21.03;;
2998;SDS011;1509;51.964;7.628;2023-06-22T13:25:57;25.80;;;21.40;;
2998;SDS011;1509;51.964;7.628;2023-06-22T13:28:23;33.80;;;23.07;;
2998;SDS011;1509;51.964;7.628;2023-06-22T13:30:48;29.37;;;24.00;;
2998;SDS011;1509;51.964;7.628;2023-06-22T13:33:17;30.27;;;23.97;;
2998;SDS011;1509;51.964;7.628;2023-06-22T13:35:43;26.83;;;24.00;;
2998;SDS011;1509;51.964;7.628;2023-06-22T13:38:09;33.50;;;24.00;;
2998;SDS011;1509;51.964;7.628;2023-06-22T13:40:35;33.17;;;25.90;;
2998;SDS011;1509;51.964;7.628;2023-06-22T13:43:03;30.90;;;24.27;;
2998;SDS011;1509;51.964;7.628;2023-06-22T13:45:29;33.13;;;25.70;;
2998;SDS011;1509;51.964;7.628;2023-06-22T13:47:55;31.63;;;25.57;;
2998;SDS011;1509;51.964;7.628;2023-06-22T13:50:20;33.43;;;25.13;;
2998;SDS011;1509;51.964;7.628;2023-06-22T13:52:46;34.00;;;27.47;;
2998;SDS011;1509;51.964;7.628;2023-06-22T13:55:12;28.20;;;24.60;;
2998;SDS011;1509;51.964;7.628;2023-06-22T13:57:39;31.07;;;25.00;;
2998;SDS011;1509;51.964;7.628;2023-06-22T14:00:05;33.70;;;26.30;;
2998;SDS011;1509;51.964;7.628;2023-06-22T14:02:33;30.33;;;24.40;;
2998;SDS011;1509;51.964;7.628;2023-06-22T14:04:58;32.67;;;25.30;;
2998;SDS011;1509;51.964;7.628;2023-06-22T14:07:24;29.60;;;24.60;;
2998;SDS011;1509;51.964;7.628;2023-06-22T14:09:50;31.10;;;23.70;;
2998;SDS011;1509;51.964;7.628;2023-06-22T14:12:16;34.00;;;26.30;;
2998;SDS011;1509;51.964;7.628;2023-06-22T14:14:45;28.97;;;22.70;;
2998;SDS011;1509;51.964;7.628;2023-06-22T14:17:10;29.10;;;23.00;;
2998;SDS011;1509;51.964;7.628;2023-06-22T14:19:36;23.10;;;20.73;;
2998;SDS011;1509;51.964;7.628;2023-06-22T14:22:02;23.43;;;19.83;;
2998;SDS011;1509;51.964;7.628;2023-06-22T14:24:28;22.90;;;19.13;;
2998;SDS011;1509;51.964;7.628;2023-06-22T14:26:54;21.70;;;18.13;;
2998;SDS011;1509;51.964;7.628;2023-06-22T14:29:21;18.23;;;15.43;;
2998;SDS011;1509;51.964;7.628;2023-06-22T14:31:47;19.07;;;16.30;;
2998;SDS011;1509;51.964;7.628;2023-06-22T14:34:13;19.40;;;14.97;;
2998;SDS011;1509;51.964;7.628;2023-06-22T14:36:39;17.83;;;14.70;;
2998;SDS011;1509;51.964;7.628;2023-06-22T14:39:05;16.37;;;13.23;;
2998;SDS011;1509;51.964;7.628;2023-06-22T14:41:31;16.60;;;14.00;;
2998;SDS011;1509;51.964;7.628;2023-06-22T14:43:56;22.30;;;15.30;;
2998;SDS011;1509;51.964;7.628;2023-06-22T14:46:22;16.60;;;13.53;;
2998;SDS011;1509;51.964;7.628;2023-06-22T14:48:48;16.27;;;13.83;;
2998;SDS011;1509;51.964;7.628;2023-06-22T14:51:14;18.63;;;14.37;;
2998;SDS011;1509;51.964;7.628;2023-06-22T14:53:45;15.70;;;13.20;;